createdAt,value
2018-12-18T00:03:51.213Z,5.84
2018-12-18T00:07:57.215Z,5.86
2018-12-18T00:12:01.303Z,5.89
2018-12-18T00:16:05.320Z,5.82
2018-12-18T00:20:09.484Z,5.74
2018-12-18T00:24:13.487Z,5.66
2018-12-18T00:28:17.502Z,5.63
2018-12-18T00:32:21.505Z,5.57
2018-12-18T00:36:25.558Z,5.51
2018-12-18T00:40:29.559Z,5.44
2018-12-18T00:44:33.571Z,5.28
2018-12-18T00:48:37.794Z,5.17
2018-12-18T00:52:41.820Z,5.10
2018-12-18T00:56:45.926Z,5.04
2018-12-18T01:00:49.863Z,4.90
2018-12-18T01:04:54.040Z,4.75
2018-12-18T01:08:58.040Z,4.74
2018-12-18T01:13:01.982Z,4.67
2018-12-18T01:17:05.922Z,4.50
2018-12-18T01:21:09.914Z,4.42
2018-12-18T01:25:13.905Z,4.39
2018-12-18T01:29:17.933Z,4.24
2018-12-18T01:33:21.927Z,4.21
2018-12-18T01:37:25.952Z,4.01
2018-12-18T01:41:30.002Z,3.93
2018-12-18T01:45:34.027Z,3.91
2018-12-18T01:49:38.039Z,3.99
2018-12-18T01:53:41.958Z,3.89
2018-12-18T01:57:45.964Z,3.75
2018-12-18T02:01:49.996Z,3.72
2018-12-18T02:05:54.099Z,3.69
2018-12-18T02:09:58.147Z,3.83
2018-12-18T02:14:02.283Z,3.91
2018-12-18T02:18:06.319Z,4.00
2018-12-18T02:22:10.400Z,3.99
2018-12-18T02:26:14.310Z,3.89
2018-12-18T02:30:18.393Z,4.07
2018-12-18T02:34:22.392Z,4.01
2018-12-18T02:38:26.397Z,4.00
2018-12-18T02:42:30.443Z,3.97
2018-12-18T02:46:34.391Z,4.02
2018-12-18T02:50:38.395Z,3.96
2018-12-18T02:54:42.392Z,3.94
2018-12-18T02:58:46.407Z,3.75
2018-12-18T03:02:50.552Z,3.76
2018-12-18T03:06:54.576Z,3.70
2018-12-18T03:10:58.588Z,3.64
2018-12-18T03:15:02.585Z,3.51
2018-12-18T03:19:06.667Z,3.56
2018-12-18T03:23:10.619Z,3.54
2018-12-18T03:27:14.603Z,3.53
2018-12-18T03:31:18.717Z,3.55
2018-12-18T03:35:22.851Z,3.44
2018-12-18T03:39:26.872Z,3.26
2018-12-18T03:43:30.772Z,2.63
2018-12-18T03:47:34.857Z,2.48
2018-12-18T03:51:38.815Z,2.39
2018-12-18T03:55:42.861Z,2.24
2018-12-18T03:59:46.824Z,2.34
2018-12-18T04:03:50.840Z,2.32
2018-12-18T04:07:54.897Z,2.21
2018-12-18T04:12:04.403Z,2.07
2018-12-18T04:16:08.427Z,1.92
2018-12-18T04:20:12.522Z,1.92
2018-12-18T04:24:16.520Z,1.87
2018-12-18T04:28:20.516Z,1.90
2018-12-18T04:32:24.492Z,1.96
2018-12-18T04:36:30.427Z,1.86
2018-12-18T04:40:34.450Z,1.87
2018-12-18T04:44:39.413Z,1.81
2018-12-18T04:48:43.415Z,1.75
2018-12-18T04:52:47.464Z,1.71
2018-12-18T04:56:51.475Z,1.74
2018-12-18T05:00:55.503Z,1.72
2018-12-18T05:04:59.563Z,1.69
2018-12-18T05:09:05.537Z,1.64
2018-12-18T05:13:10.530Z,1.76
2018-12-18T05:17:14.568Z,1.80
2018-12-18T05:21:18.515Z,1.79
2018-12-18T05:25:22.561Z,1.85
2018-12-18T05:29:26.557Z,1.92
2018-12-18T05:33:30.551Z,1.89
2018-12-18T05:37:34.599Z,2.16
2018-12-18T05:41:38.591Z,2.91
2018-12-18T05:45:44.567Z,2.35
2018-12-18T05:49:48.563Z,2.30
2018-12-18T05:53:52.639Z,2.03
2018-12-18T05:57:56.710Z,2.04
2018-12-18T06:02:00.763Z,1.98
2018-12-18T06:06:05.000Z,1.86
2018-12-18T06:10:09.107Z,1.79
2018-12-18T06:14:13.118Z,1.64
2018-12-18T06:18:17.161Z,1.71
2018-12-18T06:22:21.188Z,1.66
2018-12-18T06:26:25.213Z,1.59
2018-12-18T06:30:29.235Z,1.56
2018-12-18T06:34:34.282Z,1.48
2018-12-18T06:38:38.235Z,1.45
2018-12-18T06:42:42.191Z,1.39
2018-12-18T06:46:46.210Z,1.41
2018-12-18T06:50:50.248Z,1.46
2018-12-18T06:54:54.278Z,1.56
2018-12-18T06:58:58.267Z,1.63
2018-12-18T07:03:02.328Z,1.66
2018-12-18T07:07:06.427Z,1.67
2018-12-18T07:11:10.452Z,1.65
2018-12-18T07:15:14.474Z,1.74
2018-12-18T07:19:18.490Z,1.77
2018-12-18T07:23:22.501Z,1.76
2018-12-18T07:27:26.498Z,1.84
2018-12-18T07:31:30.511Z,1.81
2018-12-18T07:35:34.501Z,1.83
2018-12-18T07:39:38.561Z,1.78
2018-12-18T07:43:42.511Z,1.77
2018-12-18T07:47:46.502Z,1.84
2018-12-18T07:51:50.459Z,1.86
2018-12-18T07:56:00.153Z,1.95
2018-12-18T08:00:00.524Z,2.25
2018-12-18T08:04:04.585Z,2.40
2018-12-18T08:08:08.659Z,2.54
2018-12-18T08:12:12.589Z,2.47
2018-12-18T08:16:16.594Z,2.72
2018-12-18T08:20:20.767Z,2.60
2018-12-18T08:24:24.790Z,2.69
2018-12-18T08:28:28.943Z,2.73
2018-12-18T08:32:33.010Z,2.65
2018-12-18T08:36:36.999Z,2.73
2018-12-18T08:40:41.071Z,2.87
2018-12-18T08:44:44.990Z,2.94
2018-12-18T08:48:49.062Z,3.03
2018-12-18T08:52:53.066Z,3.05
2018-12-18T08:56:57.135Z,3.18
2018-12-18T09:01:01.186Z,3.28
2018-12-18T09:05:07.010Z,3.58
2018-12-18T09:09:11.089Z,3.66
2018-12-18T09:13:15.110Z,4.09
2018-12-18T09:17:24.456Z,4.25
2018-12-18T09:21:28.436Z,4.83
2018-12-18T09:25:32.674Z,4.95
2018-12-18T09:29:36.624Z,5.25
2018-12-18T09:33:40.583Z,4.76
2018-12-18T09:37:44.570Z,4.78
2018-12-18T09:41:48.703Z,4.72
2018-12-18T09:45:52.667Z,4.94
2018-12-18T09:49:56.690Z,5.30
2018-12-18T09:54:00.715Z,5.33
2018-12-18T09:58:08.914Z,5.37
2018-12-18T10:02:13.049Z,5.78
2018-12-18T10:06:17.054Z,5.44
2018-12-18T10:10:21.090Z,5.43
2018-12-18T10:14:25.232Z,5.67
2018-12-18T10:18:29.205Z,5.63
2018-12-18T10:22:33.967Z,6.03
2018-12-18T10:26:38.075Z,5.48
2018-12-18T10:30:42.119Z,5.59
2018-12-18T10:34:46.151Z,5.49
2018-12-18T10:38:50.159Z,5.70
2018-12-18T10:42:54.180Z,5.83
2018-12-18T10:46:58.160Z,5.92
2018-12-18T10:51:02.356Z,6.10
2018-12-18T10:55:07.124Z,5.94
2018-12-18T10:59:11.175Z,5.96
2018-12-18T11:03:15.266Z,6.58
2018-12-18T11:07:20.210Z,6.47
2018-12-18T11:11:24.216Z,6.62
2018-12-18T11:15:28.490Z,7.01
2018-12-18T11:19:32.583Z,6.79
2018-12-18T11:23:36.531Z,6.68
2018-12-18T11:27:40.667Z,6.94
2018-12-18T11:31:45.706Z,6.94
2018-12-18T11:35:49.735Z,7.26
2018-12-18T11:39:53.787Z,7.45
2018-12-18T11:43:57.763Z,7.71
2018-12-18T11:48:01.793Z,7.45
2018-12-18T11:52:05.823Z,7.59
2018-12-18T11:56:10.036Z,7.75
2018-12-18T12:00:17.159Z,8.06
2018-12-18T12:04:21.173Z,7.84
2018-12-18T12:08:25.171Z,7.97
2018-12-18T12:12:29.207Z,7.92
2018-12-18T12:16:33.235Z,8.19
2018-12-18T12:20:37.350Z,8.39
2018-12-18T12:24:42.352Z,8.38
2018-12-18T12:28:47.361Z,8.73
2018-12-18T12:32:51.343Z,9.00
2018-12-18T12:36:55.308Z,8.31
2018-12-18T12:41:00.283Z,8.60
2018-12-18T12:45:04.460Z,7.90
2018-12-18T12:49:10.338Z,8.21
2018-12-18T12:53:14.332Z,8.37
2018-12-18T12:57:18.274Z,7.97
2018-12-18T13:01:22.332Z,7.91
2018-12-18T13:05:26.340Z,8.13
2018-12-18T13:09:30.411Z,8.22
2018-12-18T13:13:34.339Z,8.33
2018-12-18T13:17:38.422Z,8.07
2018-12-18T13:21:42.422Z,7.85
2018-12-18T13:25:46.392Z,7.58
2018-12-18T13:29:50.629Z,7.91
2018-12-18T13:33:54.631Z,7.83
2018-12-18T13:37:58.622Z,8.05
2018-12-18T13:42:02.682Z,7.93
2018-12-18T13:46:06.749Z,7.87
2018-12-18T13:50:10.782Z,7.86
2018-12-18T13:54:14.813Z,7.68
2018-12-18T13:58:18.918Z,7.28
2018-12-18T14:02:23.886Z,7.27
2018-12-18T14:06:27.883Z,7.13
2018-12-18T14:10:31.992Z,7.03
2018-12-18T14:14:36.158Z,7.03
2018-12-18T14:18:40.194Z,6.81
2018-12-18T14:22:44.302Z,6.70
2018-12-18T14:26:48.348Z,6.59
2018-12-18T14:30:53.658Z,6.62
2018-12-18T14:34:57.986Z,6.43
2018-12-18T14:39:02.024Z,6.40
2018-12-18T14:43:06.280Z,6.34
2018-12-18T14:47:10.450Z,6.25
2018-12-18T14:51:15.563Z,6.04
2018-12-18T14:55:19.674Z,5.99
2018-12-18T14:59:24.023Z,5.78
2018-12-18T15:03:28.140Z,5.69
2018-12-18T15:07:33.410Z,5.51
2018-12-18T15:11:37.402Z,5.41
2018-12-18T15:15:41.386Z,5.25
2018-12-18T15:19:45.680Z,5.18
2018-12-18T15:23:49.914Z,5.08
2018-12-18T15:27:53.978Z,5.14
2018-12-18T15:31:58.007Z,5.00
2018-12-18T15:36:02.187Z,5.00
2018-12-18T15:40:06.654Z,4.98
2018-12-18T15:44:10.703Z,4.92
2018-12-18T15:48:14.718Z,4.88
2018-12-18T15:52:18.843Z,4.79
2018-12-18T15:56:22.955Z,4.77
2018-12-18T16:00:26.978Z,4.59
2018-12-18T16:04:31.073Z,4.56
2018-12-18T16:08:35.192Z,4.51
2018-12-18T16:12:39.343Z,4.46
2018-12-18T16:16:43.447Z,4.45
2018-12-18T16:20:47.469Z,4.44
2018-12-18T16:24:51.459Z,4.38
2018-12-18T16:28:55.503Z,4.35
2018-12-18T16:32:59.603Z,4.30
2018-12-18T16:37:03.768Z,4.40
2018-12-18T16:41:07.694Z,4.35
2018-12-18T16:45:11.891Z,4.34
2018-12-18T16:49:16.015Z,4.34
2018-12-18T16:53:20.120Z,4.36
2018-12-18T16:57:24.138Z,4.36
2018-12-18T17:01:28.121Z,4.36
2018-12-18T17:05:32.171Z,4.27
2018-12-18T17:09:36.292Z,4.29
2018-12-18T17:13:40.295Z,4.28
2018-12-18T17:17:44.325Z,4.14
2018-12-18T17:21:48.371Z,4.18
2018-12-18T17:25:53.259Z,4.23
2018-12-18T17:29:57.343Z,4.23
2018-12-18T17:34:01.521Z,4.23
2018-12-18T17:38:05.773Z,4.37
2018-12-18T17:42:09.825Z,4.38
2018-12-18T17:46:13.866Z,4.31
2018-12-18T17:50:18.895Z,4.35
2018-12-18T17:54:23.034Z,4.38
2018-12-18T17:58:27.116Z,4.34
2018-12-18T18:02:31.148Z,4.35
2018-12-18T18:06:35.262Z,4.29
2018-12-18T18:10:39.286Z,4.29
2018-12-18T18:14:43.322Z,4.12
2018-12-18T18:18:47.364Z,4.24
2018-12-18T18:22:51.475Z,4.32
2018-12-18T18:26:56.339Z,4.31
2018-12-18T18:31:00.410Z,4.32
2018-12-18T18:35:04.863Z,4.31
2018-12-18T18:39:08.966Z,4.24
2018-12-18T18:43:12.986Z,4.21
2018-12-18T18:47:17.066Z,4.23
2018-12-18T18:51:21.102Z,4.17
2018-12-18T18:55:25.083Z,4.29
2018-12-18T18:59:29.153Z,4.26
2018-12-18T19:03:33.102Z,4.28
2018-12-18T19:07:37.097Z,4.28
2018-12-18T19:11:41.198Z,4.28
2018-12-18T19:15:45.207Z,4.27
2018-12-18T19:19:49.219Z,4.31
2018-12-18T19:23:53.240Z,4.29
2018-12-18T19:27:57.381Z,4.33
2018-12-18T19:32:01.341Z,4.36
2018-12-18T19:36:05.566Z,4.34
2018-12-18T19:40:09.775Z,4.36
2018-12-18T19:44:13.752Z,4.34
2018-12-18T19:48:18.753Z,4.31
2018-12-18T19:52:22.711Z,4.28
2018-12-18T19:56:26.839Z,4.34
2018-12-18T20:00:30.859Z,4.42
2018-12-18T20:04:34.925Z,4.42
2018-12-18T20:08:39.976Z,4.40
2018-12-18T20:12:43.925Z,4.41
2018-12-18T20:16:48.081Z,4.35
2018-12-18T20:20:52.243Z,4.35
2018-12-18T20:24:56.263Z,4.40
2018-12-18T20:29:00.288Z,4.37
2018-12-18T20:33:04.501Z,4.35
2018-12-18T20:37:08.542Z,4.35
2018-12-18T20:41:12.524Z,4.35
2018-12-18T20:45:16.631Z,4.33
2018-12-18T20:49:20.723Z,4.26
2018-12-18T20:53:24.693Z,4.27
2018-12-18T20:57:28.794Z,4.22
2018-12-18T21:01:32.842Z,4.31
2018-12-18T21:05:36.999Z,4.32
2018-12-18T21:09:41.083Z,4.32
2018-12-18T21:17:52.079Z,4.36
2018-12-18T21:21:56.291Z,4.29
2018-12-18T21:26:00.563Z,4.37
2018-12-18T21:30:05.686Z,4.36
2018-12-18T21:34:10.193Z,4.40
2018-12-18T21:38:14.527Z,4.37
2018-12-18T21:42:18.795Z,4.38
2018-12-18T21:46:22.960Z,4.41
2018-12-18T21:50:27.130Z,4.40
2018-12-18T21:55:34.662Z,4.36
2018-12-18T21:59:38.812Z,4.40
2018-12-18T22:03:42.941Z,4.37
2018-12-18T22:07:47.131Z,4.30
2018-12-18T22:11:51.367Z,4.35
2018-12-18T22:15:55.486Z,4.38
2018-12-18T22:19:59.686Z,4.47
2018-12-18T22:24:03.905Z,4.56
2018-12-18T22:28:08.130Z,4.62
2018-12-18T22:32:12.296Z,4.67
2018-12-18T22:36:16.324Z,4.68
2018-12-18T22:40:20.330Z,4.66
2018-12-18T22:44:24.403Z,4.63
2018-12-18T22:48:28.367Z,4.63
2018-12-18T22:52:32.423Z,4.65
2018-12-18T22:56:36.407Z,4.67
2018-12-18T23:00:45.610Z,4.63
2018-12-18T23:04:50.989Z,4.75
2018-12-18T23:08:55.027Z,4.72
2018-12-18T23:12:59.062Z,4.71
2018-12-18T23:17:03.014Z,4.74
2018-12-18T23:21:06.996Z,4.81
2018-12-18T23:25:10.987Z,4.79
2018-12-18T23:29:14.956Z,4.73
2018-12-18T23:33:18.999Z,4.74
2018-12-18T23:37:23.007Z,4.79
2018-12-18T23:41:27.129Z,4.77
2018-12-18T23:45:31.235Z,4.78
2018-12-18T23:49:35.313Z,4.72
2018-12-18T23:53:40.010Z,4.68
2018-12-18T23:57:44.006Z,4.67
